sensor_id;sensor_type;location;lat;lon;timestamp;temperature;humidity
26707;DHT22;14319;49.422;10.934;2024-03-25T00:01:27;5.30;89.50
26707;DHT22;14319;49.422;10.934;2024-03-25T00:03:29;5.40;90.10
26707;DHT22;14319;49.422;10.934;2024-03-25T00:05:29;5.40;89.60
26707;DHT22;14319;49.422;10.934;2024-03-25T00:07:32;5.40;89.60
26707;DHT22;14319;49.422;10.934;2024-03-25T00:09:33;5.50;89.20
26707;DHT22;14319;49.422;10.934;2024-03-25T00:11:33;5.40;89.40
26707;DHT22;14319;49.422;10.934;2024-03-25T00:13:34;5.50;89.40
26707;DHT22;14319;49.422;10.934;2024-03-25T00:15:35;5.30;89.10
26707;DHT22;14319;49.422;10.934;2024-03-25T00:17:37;5.40;89.50
26707;DHT22;14319;49.422;10.934;2024-03-25T00:19:38;5.50;89.00
26707;DHT22;14319;49.422;10.934;2024-03-25T00:21:38;5.60;88.90
26707;DHT22;14319;49.422;10.934;2024-03-25T00:23:39;5.70;88.50
26707;DHT22;14319;49.422;10.934;2024-03-25T00:25:39;5.60;87.90
26707;DHT22;14319;49.422;10.934;2024-03-25T00:27:40;5.70;88.20
26707;DHT22;14319;49.422;10.934;2024-03-25T00:29:41;5.60;88.20
26707;DHT22;14319;49.422;10.934;2024-03-25T00:31:42;5.70;87.90
26707;DHT22;14319;49.422;10.934;2024-03-25T00:33:42;5.70;88.40
26707;DHT22;14319;49.422;10.934;2024-03-25T00:35:43;5.70;87.70
26707;DHT22;14319;49.422;10.934;2024-03-25T00:37:46;5.70;87.50
26707;DHT22;14319;49.422;10.934;2024-03-25T00:39:46;5.70;87.20
26707;DHT22;14319;49.422;10.934;2024-03-25T00:41:47;5.60;88.50
26707;DHT22;14319;49.422;10.934;2024-03-25T00:43:47;5.40;88.30
26707;DHT22;14319;49.422;10.934;2024-03-25T00:45:48;5.60;88.90
26707;DHT22;14319;49.422;10.934;2024-03-25T00:47:49;5.70;88.70
26707;DHT22;14319;49.422;10.934;2024-03-25T00:49:49;5.60;87.80
26707;DHT22;14319;49.422;10.934;2024-03-25T00:51:50;5.60;87.30
26707;DHT22;14319;49.422;10.934;2024-03-25T00:53:50;5.40;87.80
26707;DHT22;14319;49.422;10.934;2024-03-25T00:55:51;5.40;88.20
26707;DHT22;14319;49.422;10.934;2024-03-25T00:57:52;5.40;87.50
26707;DHT22;14319;49.422;10.934;2024-03-25T00:59:52;5.40;87.40
26707;DHT22;14319;49.422;10.934;2024-03-25T01:01:53;5.30;87.50
26707;DHT22;14319;49.422;10.934;2024-03-25T01:03:53;5.30;88.10
26707;DHT22;14319;49.422;10.934;2024-03-25T01:05:54;5.40;88.20
26707;DHT22;14319;49.422;10.934;2024-03-25T01:07:55;5.40;87.40
26707;DHT22;14319;49.422;10.934;2024-03-25T01:09:55;5.40;88.00
26707;DHT22;14319;49.422;10.934;2024-03-25T01:11:56;5.50;87.00
26707;DHT22;14319;49.422;10.934;2024-03-25T01:13:56;5.40;86.30
26707;DHT22;14319;49.422;10.934;2024-03-25T01:15:57;5.50;86.90
26707;DHT22;14319;49.422;10.934;2024-03-25T01:17:57;5.40;86.50
26707;DHT22;14319;49.422;10.934;2024-03-25T01:19:58;5.50;86.90
26707;DHT22;14319;49.422;10.934;2024-03-25T01:21:59;5.50;86.50
26707;DHT22;14319;49.422;10.934;2024-03-25T01:23:59;5.50;86.40
26707;DHT22;14319;49.422;10.934;2024-03-25T01:26:00;5.60;86.40
26707;DHT22;14319;49.422;10.934;2024-03-25T01:28:00;5.50;87.10
26707;DHT22;14319;49.422;10.934;2024-03-25T01:30:02;5.50;86.50
26707;DHT22;14319;49.422;10.934;2024-03-25T01:32:04;5.60;85.80
26707;DHT22;14319;49.422;10.934;2024-03-25T01:34:05;5.70;86.10
26707;DHT22;14319;49.422;10.934;2024-03-25T01:36:06;5.60;85.20
26707;DHT22;14319;49.422;10.934;2024-03-25T01:38:07;5.60;85.50
26707;DHT22;14319;49.422;10.934;2024-03-25T01:40:08;5.60;85.20
26707;DHT22;14319;49.422;10.934;2024-03-25T01:42:10;5.50;85.30
26707;DHT22;14319;49.422;10.934;2024-03-25T01:44:11;5.60;85.20
26707;DHT22;14319;49.422;10.934;2024-03-25T01:46:12;5.60;85.30
26707;DHT22;14319;49.422;10.934;2024-03-25T01:48:12;5.60;85.30
26707;DHT22;14319;49.422;10.934;2024-03-25T01:50:13;5.50;84.90
26707;DHT22;14319;49.422;10.934;2024-03-25T01:52:14;5.50;85.80
26707;DHT22;14319;49.422;10.934;2024-03-25T01:54:15;5.50;85.80
26707;DHT22;14319;49.422;10.934;2024-03-25T01:56:18;5.60;85.80
26707;DHT22;14319;49.422;10.934;2024-03-25T01:58:19;5.50;85.60
26707;DHT22;14319;49.422;10.934;2024-03-25T02:00:20;5.40;85.10
26707;DHT22;14319;49.422;10.934;2024-03-25T02:02:23;5.40;85.50
26707;DHT22;14319;49.422;10.934;2024-03-25T02:04:24;5.30;85.60
26707;DHT22;14319;49.422;10.934;2024-03-25T02:06:27;5.40;85.60
26707;DHT22;14319;49.422;10.934;2024-03-25T02:08:28;5.40;85.60
26707;DHT22;14319;49.422;10.934;2024-03-25T02:10:29;5.40;85.60
26707;DHT22;14319;49.422;10.934;2024-03-25T02:12:33;5.50;86.30
26707;DHT22;14319;49.422;10.934;2024-03-25T02:14:34;5.40;85.30
26707;DHT22;14319;49.422;10.934;2024-03-25T02:16:35;5.40;85.90
26707;DHT22;14319;49.422;10.934;2024-03-25T02:18:36;5.40;85.70
26707;DHT22;14319;49.422;10.934;2024-03-25T02:20:36;5.40;86.10
26707;DHT22;14319;49.422;10.934;2024-03-25T02:22:37;5.50;86.20
26707;DHT22;14319;49.422;10.934;2024-03-25T02:24:38;5.50;86.00
26707;DHT22;14319;49.422;10.934;2024-03-25T02:26:40;5.50;85.80
26707;DHT22;14319;49.422;10.934;2024-03-25T02:28:40;5.50;85.20
26707;DHT22;14319;49.422;10.934;2024-03-25T02:30:41;5.60;86.30
26707;DHT22;14319;49.422;10.934;2024-03-25T02:32:42;5.70;85.10
26707;DHT22;14319;49.422;10.934;2024-03-25T02:34:51;5.60;84.80
26707;DHT22;14319;49.422;10.934;2024-03-25T02:36:52;5.60;84.80
26707;DHT22;14319;49.422;10.934;2024-03-25T02:38:53;5.60;85.40
26707;DHT22;14319;49.422;10.934;2024-03-25T02:40:54;5.60;84.30
26707;DHT22;14319;49.422;10.934;2024-03-25T02:42:56;5.60;84.70
26707;DHT22;14319;49.422;10.934;2024-03-25T02:44:57;5.40;85.00
26707;DHT22;14319;49.422;10.934;2024-03-25T02:46:58;5.30;85.80
26707;DHT22;14319;49.422;10.934;2024-03-25T02:48:59;5.30;86.00
26707;DHT22;14319;49.422;10.934;2024-03-25T02:51:00;5.20;86.10
26707;DHT22;14319;49.422;10.934;2024-03-25T02:53:01;5.20;86.80
26707;DHT22;14319;49.422;10.934;2024-03-25T02:55:01;5.30;86.70
26707;DHT22;14319;49.422;10.934;2024-03-25T02:57:02;5.40;85.50
26707;DHT22;14319;49.422;10.934;2024-03-25T02:59:03;5.30;85.60
26707;DHT22;14319;49.422;10.934;2024-03-25T03:01:03;5.40;85.80
26707;DHT22;14319;49.422;10.934;2024-03-25T03:03:04;5.20;85.90
26707;DHT22;14319;49.422;10.934;2024-03-25T03:05:05;5.30;86.50
26707;DHT22;14319;49.422;10.934;2024-03-25T03:07:05;5.40;86.10
26707;DHT22;14319;49.422;10.934;2024-03-25T03:09:06;5.40;85.90
26707;DHT22;14319;49.422;10.934;2024-03-25T03:11:07;5.40;85.70
26707;DHT22;14319;49.422;10.934;2024-03-25T03:13:07;5.30;86.40
26707;DHT22;14319;49.422;10.934;2024-03-25T03:15:08;5.10;86.60
26707;DHT22;14319;49.422;10.934;2024-03-25T03:17:09;5.10;87.20
26707;DHT22;14319;49.422;10.934;2024-03-25T03:19:10;5.00;87.30
26707;DHT22;14319;49.422;10.934;2024-03-25T03:21:10;5.10;87.60
26707;DHT22;14319;49.422;10.934;2024-03-25T03:23:11;5.10;88.10
26707;DHT22;14319;49.422;10.934;2024-03-25T03:25:11;5.10;87.40
26707;DHT22;14319;49.422;10.934;2024-03-25T03:27:12;5.00;87.70
26707;DHT22;14319;49.422;10.934;2024-03-25T03:29:13;4.90;87.50
26707;DHT22;14319;49.422;10.934;2024-03-25T03:31:13;4.90;88.00
26707;DHT22;14319;49.422;10.934;2024-03-25T03:33:14;4.90;87.60
26707;DHT22;14319;49.422;10.934;2024-03-25T03:35:15;4.90;87.90
26707;DHT22;14319;49.422;10.934;2024-03-25T03:37:15;4.90;88.30
26707;DHT22;14319;49.422;10.934;2024-03-25T03:39:16;4.80;87.80
26707;DHT22;14319;49.422;10.934;2024-03-25T03:41:18;4.80;88.70
26707;DHT22;14319;49.422;10.934;2024-03-25T03:43:18;4.80;88.10
26707;DHT22;14319;49.422;10.934;2024-03-25T03:45:19;4.80;88.50
26707;DHT22;14319;49.422;10.934;2024-03-25T03:47:20;5.00;88.50
26707;DHT22;14319;49.422;10.934;2024-03-25T03:49:20;4.90;88.40
26707;DHT22;14319;49.422;10.934;2024-03-25T03:51:21;4.80;87.90
26707;DHT22;14319;49.422;10.934;2024-03-25T03:53:22;4.80;88.10
26707;DHT22;14319;49.422;10.934;2024-03-25T03:55:23;4.60;88.30
26707;DHT22;14319;49.422;10.934;2024-03-25T03:57:24;4.60;88.90
26707;DHT22;14319;49.422;10.934;2024-03-25T03:59:26;4.60;88.90
26707;DHT22;14319;49.422;10.934;2024-03-25T04:01:26;4.70;88.50
26707;DHT22;14319;49.422;10.934;2024-03-25T04:03:27;4.50;88.60
26707;DHT22;14319;49.422;10.934;2024-03-25T04:05:29;4.40;89.20
26707;DHT22;14319;49.422;10.934;2024-03-25T04:07:32;4.40;89.30
26707;DHT22;14319;49.422;10.934;2024-03-25T04:09:33;4.40;89.30
26707;DHT22;14319;49.422;10.934;2024-03-25T04:11:36;4.50;89.50
26707;DHT22;14319;49.422;10.934;2024-03-25T04:13:36;4.50;89.60
26707;DHT22;14319;49.422;10.934;2024-03-25T04:15:37;4.50;89.00
26707;DHT22;14319;49.422;10.934;2024-03-25T04:17:38;4.60;88.90
26707;DHT22;14319;49.422;10.934;2024-03-25T04:19:39;4.70;89.00
26707;DHT22;14319;49.422;10.934;2024-03-25T04:21:39;4.70;88.20
26707;DHT22;14319;49.422;10.934;2024-03-25T04:23:40;4.80;88.10
26707;DHT22;14319;49.422;10.934;2024-03-25T04:25:41;4.60;87.90
26707;DHT22;14319;49.422;10.934;2024-03-25T04:27:42;4.50;88.50
26707;DHT22;14319;49.422;10.934;2024-03-25T04:29:43;4.40;88.60
26707;DHT22;14319;49.422;10.934;2024-03-25T04:31:44;4.50;89.00
26707;DHT22;14319;49.422;10.934;2024-03-25T04:33:44;4.40;88.50
26707;DHT22;14319;49.422;10.934;2024-03-25T04:35:46;4.60;88.50
26707;DHT22;14319;49.422;10.934;2024-03-25T04:37:47;4.60;88.20
26707;DHT22;14319;49.422;10.934;2024-03-25T04:39:47;4.70;88.20
26707;DHT22;14319;49.422;10.934;2024-03-25T04:41:52;4.50;88.20
26707;DHT22;14319;49.422;10.934;2024-03-25T04:43:53;4.60;89.00
26707;DHT22;14319;49.422;10.934;2024-03-25T04:45:53;4.60;88.80
26707;DHT22;14319;49.422;10.934;2024-03-25T04:47:54;4.70;88.60
26707;DHT22;14319;49.422;10.934;2024-03-25T04:49:55;4.80;87.90
26707;DHT22;14319;49.422;10.934;2024-03-25T04:51:56;4.80;88.30
26707;DHT22;14319;49.422;10.934;2024-03-25T04:53:57;5.00;87.70
26707;DHT22;14319;49.422;10.934;2024-03-25T04:55:57;4.80;87.40
26707;DHT22;14319;49.422;10.934;2024-03-25T04:57:58;5.00;86.90
26707;DHT22;14319;49.422;10.934;2024-03-25T04:59:58;4.90;87.00
26707;DHT22;14319;49.422;10.934;2024-03-25T05:01:59;4.90;86.60
26707;DHT22;14319;49.422;10.934;2024-03-25T05:04:01;4.90;86.80
26707;DHT22;14319;49.422;10.934;2024-03-25T05:06:01;5.00;87.20
26707;DHT22;14319;49.422;10.934;2024-03-25T05:08:02;4.80;87.80
26707;DHT22;14319;49.422;10.934;2024-03-25T05:10:04;4.90;87.20
26707;DHT22;14319;49.422;10.934;2024-03-25T05:12:05;4.90;86.50
26707;DHT22;14319;49.422;10.934;2024-03-25T05:14:05;4.90;86.90
26707;DHT22;14319;49.422;10.934;2024-03-25T05:16:06;5.00;87.00
26707;DHT22;14319;49.422;10.934;2024-03-25T05:18:07;5.00;86.30
26707;DHT22;14319;49.422;10.934;2024-03-25T05:20:07;4.90;86.30
26707;DHT22;14319;49.422;10.934;2024-03-25T05:22:09;4.90;86.00
26707;DHT22;14319;49.422;10.934;2024-03-25T05:24:10;4.80;86.10
26707;DHT22;14319;49.422;10.934;2024-03-25T05:26:11;4.70;87.20
26707;DHT22;14319;49.422;10.934;2024-03-25T05:28:12;4.60;86.70
26707;DHT22;14319;49.422;10.934;2024-03-25T05:30:13;4.80;86.90
26707;DHT22;14319;49.422;10.934;2024-03-25T05:32:14;4.50;86.60
26707;DHT22;14319;49.422;10.934;2024-03-25T05:34:16;4.60;87.00
26707;DHT22;14319;49.422;10.934;2024-03-25T05:36:17;4.30;87.60
26707;DHT22;14319;49.422;10.934;2024-03-25T05:38:18;4.30;88.50
26707;DHT22;14319;49.422;10.934;2024-03-25T05:40:18;4.40;88.20
26707;DHT22;14319;49.422;10.934;2024-03-25T05:42:19;4.40;87.50
26707;DHT22;14319;49.422;10.934;2024-03-25T05:44:21;4.50;87.30
26707;DHT22;14319;49.422;10.934;2024-03-25T05:46:21;4.60;87.30
26707;DHT22;14319;49.422;10.934;2024-03-25T05:48:25;4.30;87.50
26707;DHT22;14319;49.422;10.934;2024-03-25T05:50:26;4.20;88.20
26707;DHT22;14319;49.422;10.934;2024-03-25T05:52:28;4.20;88.00
26707;DHT22;14319;49.422;10.934;2024-03-25T05:54:29;4.10;88.80
26707;DHT22;14319;49.422;10.934;2024-03-25T05:56:29;4.20;88.40
26707;DHT22;14319;49.422;10.934;2024-03-25T05:58:34;4.30;88.60
26707;DHT22;14319;49.422;10.934;2024-03-25T06:00:35;4.30;87.70
26707;DHT22;14319;49.422;10.934;2024-03-25T06:02:35;4.40;87.40
26707;DHT22;14319;49.422;10.934;2024-03-25T06:04:36;4.40;87.60
26707;DHT22;14319;49.422;10.934;2024-03-25T06:06:37;4.30;87.80
26707;DHT22;14319;49.422;10.934;2024-03-25T06:08:37;4.20;87.10
26707;DHT22;14319;49.422;10.934;2024-03-25T06:10:38;4.30;87.70
26707;DHT22;14319;49.422;10.934;2024-03-25T06:12:38;4.30;87.70
26707;DHT22;14319;49.422;10.934;2024-03-25T06:14:39;4.50;88.00
26707;DHT22;14319;49.422;10.934;2024-03-25T06:16:39;4.40;87.10
26707;DHT22;14319;49.422;10.934;2024-03-25T06:18:41;4.30;86.70
26707;DHT22;14319;49.422;10.934;2024-03-25T06:20:42;4.30;86.80
26707;DHT22;14319;49.422;10.934;2024-03-25T06:22:42;4.40;87.50
26707;DHT22;14319;49.422;10.934;2024-03-25T06:24:43;4.40;86.50
26707;DHT22;14319;49.422;10.934;2024-03-25T06:26:44;4.50;86.40
26707;DHT22;14319;49.422;10.934;2024-03-25T06:28:45;4.60;86.40
26707;DHT22;14319;49.422;10.934;2024-03-25T06:30:46;4.70;85.80
26707;DHT22;14319;49.422;10.934;2024-03-25T06:33:06;4.80;85.90
26707;DHT22;14319;49.422;10.934;2024-03-25T06:35:25;4.90;85.30
26707;DHT22;14319;49.422;10.934;2024-03-25T06:37:26;4.90;84.30
26707;DHT22;14319;49.422;10.934;2024-03-25T06:39:27;4.90;84.40
26707;DHT22;14319;49.422;10.934;2024-03-25T06:41:27;5.00;84.20
26707;DHT22;14319;49.422;10.934;2024-03-25T06:43:28;5.00;84.30
26707;DHT22;14319;49.422;10.934;2024-03-25T06:45:29;4.80;84.80
26707;DHT22;14319;49.422;10.934;2024-03-25T06:47:30;5.00;85.10
26707;DHT22;14319;49.422;10.934;2024-03-25T06:49:30;5.10;84.50
26707;DHT22;14319;49.422;10.934;2024-03-25T06:51:31;5.00;84.40
26707;DHT22;14319;49.422;10.934;2024-03-25T06:53:32;5.00;83.70
26707;DHT22;14319;49.422;10.934;2024-03-25T06:55:32;5.00;84.60
26707;DHT22;14319;49.422;10.934;2024-03-25T06:57:33;5.10;83.50
26707;DHT22;14319;49.422;10.934;2024-03-25T06:59:33;4.90;84.10
26707;DHT22;14319;49.422;10.934;2024-03-25T07:01:36;5.00;83.80
26707;DHT22;14319;49.422;10.934;2024-03-25T07:03:37;5.10;83.10
26707;DHT22;14319;49.422;10.934;2024-03-25T07:05:38;5.20;82.50
26707;DHT22;14319;49.422;10.934;2024-03-25T07:07:38;5.10;83.40
26707;DHT22;14319;49.422;10.934;2024-03-25T07:09:39;5.20;83.10
26707;DHT22;14319;49.422;10.934;2024-03-25T07:11:39;5.30;83.50
26707;DHT22;14319;49.422;10.934;2024-03-25T07:13:43;5.10;82.80
26707;DHT22;14319;49.422;10.934;2024-03-25T07:15:44;5.20;83.90
26707;DHT22;14319;49.422;10.934;2024-03-25T07:17:45;5.30;82.90
26707;DHT22;14319;49.422;10.934;2024-03-25T07:19:46;5.40;82.40
26707;DHT22;14319;49.422;10.934;2024-03-25T07:21:46;5.30;81.80
26707;DHT22;14319;49.422;10.934;2024-03-25T07:23:47;5.50;81.00
26707;DHT22;14319;49.422;10.934;2024-03-25T07:25:48;5.50;81.50
26707;DHT22;14319;49.422;10.934;2024-03-25T07:27:49;5.50;81.70
26707;DHT22;14319;49.422;10.934;2024-03-25T07:29:49;5.50;82.50
26707;DHT22;14319;49.422;10.934;2024-03-25T07:31:50;5.50;81.60
26707;DHT22;14319;49.422;10.934;2024-03-25T07:33:50;5.60;80.60
26707;DHT22;14319;49.422;10.934;2024-03-25T07:35:51;5.70;80.40
26707;DHT22;14319;49.422;10.934;2024-03-25T07:37:52;5.70;79.20
26707;DHT22;14319;49.422;10.934;2024-03-25T07:39:52;5.80;79.00
26707;DHT22;14319;49.422;10.934;2024-03-25T07:41:53;5.60;77.00
26707;DHT22;14319;49.422;10.934;2024-03-25T07:43:54;5.70;77.30
26707;DHT22;14319;49.422;10.934;2024-03-25T07:45:54;5.80;78.20
26707;DHT22;14319;49.422;10.934;2024-03-25T07:47:55;5.90;77.90
26707;DHT22;14319;49.422;10.934;2024-03-25T07:49:55;5.90;76.40
26707;DHT22;14319;49.422;10.934;2024-03-25T07:51:56;5.90;77.00
26707;DHT22;14319;49.422;10.934;2024-03-25T07:53:57;5.90;77.60
26707;DHT22;14319;49.422;10.934;2024-03-25T07:55:57;6.00;77.00
26707;DHT22;14319;49.422;10.934;2024-03-25T07:57:58;6.10;76.50
26707;DHT22;14319;49.422;10.934;2024-03-25T07:59:58;6.20;75.90
26707;DHT22;14319;49.422;10.934;2024-03-25T08:01:59;6.10;75.50
26707;DHT22;14319;49.422;10.934;2024-03-25T08:04:00;6.20;75.10
26707;DHT22;14319;49.422;10.934;2024-03-25T08:06:02;6.30;76.30
26707;DHT22;14319;49.422;10.934;2024-03-25T08:08:04;6.50;75.20
26707;DHT22;14319;49.422;10.934;2024-03-25T08:10:05;6.60;74.40
26707;DHT22;14319;49.422;10.934;2024-03-25T08:12:06;6.70;74.10
26707;DHT22;14319;49.422;10.934;2024-03-25T08:14:06;6.70;73.50
26707;DHT22;14319;49.422;10.934;2024-03-25T08:16:07;6.80;74.00
26707;DHT22;14319;49.422;10.934;2024-03-25T08:18:08;6.80;73.10
26707;DHT22;14319;49.422;10.934;2024-03-25T08:20:09;6.90;74.40
26707;DHT22;14319;49.422;10.934;2024-03-25T08:22:09;7.00;72.70
26707;DHT22;14319;49.422;10.934;2024-03-25T08:24:10;7.10;70.70
26707;DHT22;14319;49.422;10.934;2024-03-25T08:26:11;6.90;72.70
26707;DHT22;14319;49.422;10.934;2024-03-25T08:28:11;6.90;71.50
26707;DHT22;14319;49.422;10.934;2024-03-25T08:30:12;6.90;71.70
26707;DHT22;14319;49.422;10.934;2024-03-25T08:32:13;7.00;74.60
26707;DHT22;14319;49.422;10.934;2024-03-25T08:34:13;7.10;73.00
26707;DHT22;14319;49.422;10.934;2024-03-25T08:36:14;7.20;72.90
26707;DHT22;14319;49.422;10.934;2024-03-25T08:38:15;7.10;72.30
26707;DHT22;14319;49.422;10.934;2024-03-25T08:40:16;7.00;71.90
26707;DHT22;14319;49.422;10.934;2024-03-25T08:42:16;7.00;70.40
26707;DHT22;14319;49.422;10.934;2024-03-25T08:44:17;6.80;70.90
26707;DHT22;14319;49.422;10.934;2024-03-25T08:46:18;6.70;71.10
26707;DHT22;14319;49.422;10.934;2024-03-25T08:48:18;6.90;72.40
26707;DHT22;14319;49.422;10.934;2024-03-25T08:50:19;7.10;71.90
26707;DHT22;14319;49.422;10.934;2024-03-25T08:52:19;7.10;70.00
26707;DHT22;14319;49.422;10.934;2024-03-25T08:54:20;7.20;69.90
26707;DHT22;14319;49.422;10.934;2024-03-25T08:56:20;7.30;69.30
26707;DHT22;14319;49.422;10.934;2024-03-25T08:58:21;7.40;70.20
26707;DHT22;14319;49.422;10.934;2024-03-25T09:00:22;7.50;70.90
26707;DHT22;14319;49.422;10.934;2024-03-25T09:02:23;7.30;68.70
26707;DHT22;14319;49.422;10.934;2024-03-25T09:04:24;7.30;70.50
26707;DHT22;14319;49.422;10.934;2024-03-25T09:06:25;7.40;70.00
26707;DHT22;14319;49.422;10.934;2024-03-25T09:08:25;7.40;69.90
26707;DHT22;14319;49.422;10.934;2024-03-25T09:10:27;7.30;69.40
26707;DHT22;14319;49.422;10.934;2024-03-25T09:12:47;7.30;69.70
26707;DHT22;14319;49.422;10.934;2024-03-25T09:14:47;7.30;70.30
26707;DHT22;14319;49.422;10.934;2024-03-25T09:16:48;7.40;70.20
26707;DHT22;14319;49.422;10.934;2024-03-25T09:18:49;7.60;70.40
26707;DHT22;14319;49.422;10.934;2024-03-25T09:20:50;7.60;69.80
26707;DHT22;14319;49.422;10.934;2024-03-25T09:22:50;7.70;69.40
26707;DHT22;14319;49.422;10.934;2024-03-25T09:24:51;7.70;69.30
26707;DHT22;14319;49.422;10.934;2024-03-25T09:26:51;7.90;70.70
26707;DHT22;14319;49.422;10.934;2024-03-25T09:28:52;8.00;69.50
26707;DHT22;14319;49.422;10.934;2024-03-25T09:30:53;8.20;70.00
26707;DHT22;14319;49.422;10.934;2024-03-25T09:32:53;7.90;69.60
26707;DHT22;14319;49.422;10.934;2024-03-25T09:34:54;7.70;70.60
26707;DHT22;14319;49.422;10.934;2024-03-25T09:36:55;7.60;69.80
26707;DHT22;14319;49.422;10.934;2024-03-25T09:38:55;7.70;70.10
26707;DHT22;14319;49.422;10.934;2024-03-25T09:40:57;7.70;69.60
26707;DHT22;14319;49.422;10.934;2024-03-25T09:43:02;7.80;68.60
26707;DHT22;14319;49.422;10.934;2024-03-25T09:45:03;7.70;65.90
26707;DHT22;14319;49.422;10.934;2024-03-25T09:47:07;7.40;68.20
26707;DHT22;14319;49.422;10.934;2024-03-25T09:49:10;7.20;69.60
26707;DHT22;14319;49.422;10.934;2024-03-25T09:51:10;7.10;69.20
26707;DHT22;14319;49.422;10.934;2024-03-25T09:53:11;7.00;69.90
26707;DHT22;14319;49.422;10.934;2024-03-25T09:55:12;7.20;70.50
26707;DHT22;14319;49.422;10.934;2024-03-25T09:57:14;7.10;69.10
26707;DHT22;14319;49.422;10.934;2024-03-25T09:59:15;7.20;70.40
26707;DHT22;14319;49.422;10.934;2024-03-25T10:01:15;7.20;68.50
26707;DHT22;14319;49.422;10.934;2024-03-25T10:03:16;7.30;68.90
26707;DHT22;14319;49.422;10.934;2024-03-25T10:05:17;7.40;69.50
26707;DHT22;14319;49.422;10.934;2024-03-25T10:07:24;7.40;70.20
26707;DHT22;14319;49.422;10.934;2024-03-25T10:09:25;7.70;69.50
26707;DHT22;14319;49.422;10.934;2024-03-25T10:11:26;8.00;69.60
26707;DHT22;14319;49.422;10.934;2024-03-25T10:13:28;8.20;69.00
26707;DHT22;14319;49.422;10.934;2024-03-25T10:15:29;8.10;63.10
26707;DHT22;14319;49.422;10.934;2024-03-25T10:17:31;8.30;64.50
26707;DHT22;14319;49.422;10.934;2024-03-25T10:19:33;8.40;61.40
26707;DHT22;14319;49.422;10.934;2024-03-25T10:21:34;8.50;61.80
26707;DHT22;14319;49.422;10.934;2024-03-25T10:23:35;8.50;61.80
26707;DHT22;14319;49.422;10.934;2024-03-25T10:25:41;8.60;63.40
26707;DHT22;14319;49.422;10.934;2024-03-25T10:27:41;8.50;58.40
26707;DHT22;14319;49.422;10.934;2024-03-25T10:29:53;8.60;61.70
26707;DHT22;14319;49.422;10.934;2024-03-25T10:31:59;8.60;62.50
26707;DHT22;14319;49.422;10.934;2024-03-25T10:34:00;8.60;66.00
26707;DHT22;14319;49.422;10.934;2024-03-25T10:36:03;8.40;64.80
26707;DHT22;14319;49.422;10.934;2024-03-25T10:38:10;8.40;62.70
26707;DHT22;14319;49.422;10.934;2024-03-25T10:40:11;8.00;62.20
26707;DHT22;14319;49.422;10.934;2024-03-25T10:42:18;8.00;65.80
26707;DHT22;14319;49.422;10.934;2024-03-25T10:44:19;8.30;65.60
26707;DHT22;14319;49.422;10.934;2024-03-25T10:46:20;8.30;63.10
26707;DHT22;14319;49.422;10.934;2024-03-25T10:50:30;8.40;61.20
26707;DHT22;14319;49.422;10.934;2024-03-25T10:52:32;8.30;59.90
26707;DHT22;14319;49.422;10.934;2024-03-25T10:54:34;8.00;61.50
26707;DHT22;14319;49.422;10.934;2024-03-25T10:56:35;8.10;64.20
26707;DHT22;14319;49.422;10.934;2024-03-25T10:58:36;8.10;63.60
26707;DHT22;14319;49.422;10.934;2024-03-25T11:00:38;8.10;60.50
26707;DHT22;14319;49.422;10.934;2024-03-25T11:02:38;8.20;61.40
26707;DHT22;14319;49.422;10.934;2024-03-25T11:04:39;8.10;59.60
26707;DHT22;14319;49.422;10.934;2024-03-25T11:06:41;7.80;62.10
26707;DHT22;14319;49.422;10.934;2024-03-25T11:08:41;7.90;62.20
26707;DHT22;14319;49.422;10.934;2024-03-25T11:10:43;8.00;62.10
26707;DHT22;14319;49.422;10.934;2024-03-25T11:12:45;8.20;61.70
26707;DHT22;14319;49.422;10.934;2024-03-25T11:14:56;8.50;60.30
26707;DHT22;14319;49.422;10.934;2024-03-25T11:16:57;8.40;59.00
26707;DHT22;14319;49.422;10.934;2024-03-25T11:19:03;8.50;60.30
26707;DHT22;14319;49.422;10.934;2024-03-25T11:21:05;8.60;59.00
26707;DHT22;14319;49.422;10.934;2024-03-25T11:23:10;8.60;59.60
26707;DHT22;14319;49.422;10.934;2024-03-25T11:25:13;8.70;60.60
26707;DHT22;14319;49.422;10.934;2024-03-25T11:27:14;8.60;58.20
26707;DHT22;14319;49.422;10.934;2024-03-25T11:29:14;8.70;59.10
26707;DHT22;14319;49.422;10.934;2024-03-25T11:31:15;8.60;58.00
26707;DHT22;14319;49.422;10.934;2024-03-25T11:33:17;8.50;61.90
26707;DHT22;14319;49.422;10.934;2024-03-25T11:35:19;8.50;59.80
26707;DHT22;14319;49.422;10.934;2024-03-25T11:37:19;8.60;60.30
26707;DHT22;14319;49.422;10.934;2024-03-25T11:39:20;8.70;59.60
26707;DHT22;14319;49.422;10.934;2024-03-25T11:41:20;8.80;59.00
26707;DHT22;14319;49.422;10.934;2024-03-25T11:43:22;8.50;58.90
26707;DHT22;14319;49.422;10.934;2024-03-25T11:45:23;8.50;59.40
26707;DHT22;14319;49.422;10.934;2024-03-25T11:47:25;8.60;59.70
26707;DHT22;14319;49.422;10.934;2024-03-25T11:49:26;8.60;59.50
26707;DHT22;14319;49.422;10.934;2024-03-25T11:51:27;8.60;59.40
26707;DHT22;14319;49.422;10.934;2024-03-25T11:53:30;8.70;59.70
26707;DHT22;14319;49.422;10.934;2024-03-25T11:55:30;8.80;57.40
26707;DHT22;14319;49.422;10.934;2024-03-25T11:57:31;8.60;59.50
26707;DHT22;14319;49.422;10.934;2024-03-25T11:59:34;8.70;61.10
26707;DHT22;14319;49.422;10.934;2024-03-25T12:01:34;8.90;58.60
26707;DHT22;14319;49.422;10.934;2024-03-25T12:03:38;9.00;58.30
26707;DHT22;14319;49.422;10.934;2024-03-25T12:05:39;9.10;58.10
26707;DHT22;14319;49.422;10.934;2024-03-25T12:07:43;9.00;57.60
26707;DHT22;14319;49.422;10.934;2024-03-25T12:09:44;8.70;57.70
26707;DHT22;14319;49.422;10.934;2024-03-25T12:12:03;8.60;56.70
26707;DHT22;14319;49.422;10.934;2024-03-25T12:14:04;8.50;56.10
26707;DHT22;14319;49.422;10.934;2024-03-25T12:16:04;8.50;57.30
26707;DHT22;14319;49.422;10.934;2024-03-25T12:18:07;8.50;56.50
26707;DHT22;14319;49.422;10.934;2024-03-25T12:20:09;8.70;56.60
26707;DHT22;14319;49.422;10.934;2024-03-25T12:22:09;8.80;56.50
26707;DHT22;14319;49.422;10.934;2024-03-25T12:24:11;9.00;57.90
26707;DHT22;14319;49.422;10.934;2024-03-25T12:26:12;9.10;54.90
26707;DHT22;14319;49.422;10.934;2024-03-25T12:28:13;9.10;54.70
26707;DHT22;14319;49.422;10.934;2024-03-25T12:30:14;9.30;57.00
26707;DHT22;14319;49.422;10.934;2024-03-25T12:32:15;9.40;55.90
26707;DHT22;14319;49.422;10.934;2024-03-25T12:34:17;9.30;55.10
26707;DHT22;14319;49.422;10.934;2024-03-25T12:36:20;9.30;54.70
26707;DHT22;14319;49.422;10.934;2024-03-25T12:38:30;9.40;53.80
26707;DHT22;14319;49.422;10.934;2024-03-25T12:40:34;9.40;55.30
26707;DHT22;14319;49.422;10.934;2024-03-25T12:42:35;9.40;55.10
26707;DHT22;14319;49.422;10.934;2024-03-25T12:44:36;9.50;54.80
26707;DHT22;14319;49.422;10.934;2024-03-25T12:46:37;9.10;53.10
26707;DHT22;14319;49.422;10.934;2024-03-25T12:48:38;9.00;51.90